sensor_id;sensor_type;location;lat;lon;timestamp;P1;durP1;ratioP1;P2;durP2;ratioP2
25207;SDS011;13153;52.316;21.166;2023-02-17T00:01:28;105.13;;;51.28;;
25207;SDS011;13153;52.316;21.166;2023-02-17T00:03:56;114.43;;;54.40;;
25207;SDS011;13153;52.316;21.166;2023-02-17T00:06:24;111.90;;;53.22;;
25207;SDS011;13153;52.316;21.166;2023-02-17T00:08:53;107.32;;;53.00;;
25207;SDS011;13153;52.316;21.166;2023-02-17T00:11:20;120.38;;;54.83;;
25207;SDS011;13153;52.316;21.166;2023-02-17T00:13:46;109.03;;;52.65;;
25207;SDS011;13153;52.316;21.166;2023-02-17T00:16:17;113.10;;;52.75;;
25207;SDS011;13153;52.316;21.166;2023-02-17T00:18:46;110.80;;;53.45;;
25207;SDS011;13153;52.316;21.166;2023-02-17T00:21:17;112.03;;;53.72;;
25207;SDS011;13153;52.316;21.166;2023-02-17T00:23:46;110.57;;;53.03;;
25207;SDS011;13153;52.316;21.166;2023-02-17T00:26:14;108.95;;;53.08;;
25207;SDS011;13153;52.316;21.166;2023-02-17T00:28:44;111.70;;;52.85;;
25207;SDS011;13153;52.316;21.166;2023-02-17T00:31:15;110.28;;;54.28;;
25207;SDS011;13153;52.316;21.166;2023-02-17T00:33:44;105.95;;;53.80;;
25207;SDS011;13153;52.316;21.166;2023-02-17T00:36:12;110.38;;;53.15;;
25207;SDS011;13153;52.316;21.166;2023-02-17T00:38:44;110.82;;;53.53;;
25207;SDS011;13153;52.316;21.166;2023-02-17T00:41:14;107.05;;;52.05;;
25207;SDS011;13153;52.316;21.166;2023-02-17T00:43:42;108.43;;;52.83;;
25207;SDS011;13153;52.316;21.166;2023-02-17T00:46:08;104.10;;;51.75;;
25207;SDS011;13153;52.316;21.166;2023-02-17T00:48:34;110.45;;;53.22;;
25207;SDS011;13153;52.316;21.166;2023-02-17T00:51:00;106.55;;;53.60;;
25207;SDS011;13153;52.316;21.166;2023-02-17T00:53:26;109.00;;;53.03;;
25207;SDS011;13153;52.316;21.166;2023-02-17T00:55:52;112.43;;;53.88;;
25207;SDS011;13153;52.316;21.166;2023-02-17T00:58:18;114.65;;;53.00;;
25207;SDS011;13153;52.316;21.166;2023-02-17T01:00:44;109.75;;;52.42;;
25207;SDS011;13153;52.316;21.166;2023-02-17T01:03:10;105.82;;;53.33;;
25207;SDS011;13153;52.316;21.166;2023-02-17T01:05:42;106.45;;;51.05;;
25207;SDS011;13153;52.316;21.166;2023-02-17T01:08:12;108.60;;;52.05;;
25207;SDS011;13153;52.316;21.166;2023-02-17T01:10:41;112.18;;;52.53;;
25207;SDS011;13153;52.316;21.166;2023-02-17T01:13:10;109.85;;;54.00;;
25207;SDS011;13153;52.316;21.166;2023-02-17T01:15:38;111.07;;;52.60;;
25207;SDS011;13153;52.316;21.166;2023-02-17T01:18:30;111.43;;;52.72;;
25207;SDS011;13153;52.316;21.166;2023-02-17T01:20:56;103.57;;;51.92;;
25207;SDS011;13153;52.316;21.166;2023-02-17T01:23:22;109.90;;;52.75;;
25207;SDS011;13153;52.316;21.166;2023-02-17T01:25:48;107.25;;;51.58;;
25207;SDS011;13153;52.316;21.166;2023-02-17T01:28:16;104.20;;;51.50;;
25207;SDS011;13153;52.316;21.166;2023-02-17T01:30:44;107.13;;;52.47;;
25207;SDS011;13153;52.316;21.166;2023-02-17T01:33:11;102.32;;;52.13;;
25207;SDS011;13153;52.316;21.166;2023-02-17T01:35:37;100.90;;;51.20;;
25207;SDS011;13153;52.316;21.166;2023-02-17T01:38:03;105.47;;;52.35;;
25207;SDS011;13153;52.316;21.166;2023-02-17T01:40:28;111.47;;;52.95;;
25207;SDS011;13153;52.316;21.166;2023-02-17T01:42:54;109.80;;;52.72;;
25207;SDS011;13153;52.316;21.166;2023-02-17T01:47:50;110.07;;;52.97;;
25207;SDS011;13153;52.316;21.166;2023-02-17T01:50:24;114.28;;;54.30;;
25207;SDS011;13153;52.316;21.166;2023-02-17T01:52:56;105.10;;;51.92;;
25207;SDS011;13153;52.316;21.166;2023-02-17T01:55:25;104.93;;;50.75;;
25207;SDS011;13153;52.316;21.166;2023-02-17T01:57:52;111.47;;;51.58;;
25207;SDS011;13153;52.316;21.166;2023-02-17T02:00:23;109.68;;;52.50;;
25207;SDS011;13153;52.316;21.166;2023-02-17T02:02:54;108.65;;;52.45;;
25207;SDS011;13153;52.316;21.166;2023-02-17T02:05:21;104.95;;;52.30;;
25207;SDS011;13153;52.316;21.166;2023-02-17T02:07:47;104.15;;;51.90;;
25207;SDS011;13153;52.316;21.166;2023-02-17T02:10:16;107.45;;;51.97;;
25207;SDS011;13153;52.316;21.166;2023-02-17T02:12:43;102.55;;;51.78;;
25207;SDS011;13153;52.316;21.166;2023-02-17T02:15:13;107.75;;;51.78;;
25207;SDS011;13153;52.316;21.166;2023-02-17T02:17:53;107.00;;;51.90;;
25207;SDS011;13153;52.316;21.166;2023-02-17T02:20:40;111.90;;;53.20;;
25207;SDS011;13153;52.316;21.166;2023-02-17T02:32:53;106.10;;;51.42;;
25207;SDS011;13153;52.316;21.166;2023-02-17T02:35:40;102.90;;;50.78;;
25207;SDS011;13153;52.316;21.166;2023-02-17T02:40:49;102.78;;;50.92;;
25207;SDS011;13153;52.316;21.166;2023-02-17T02:43:26;107.97;;;53.17;;
25207;SDS011;13153;52.316;21.166;2023-02-17T02:45:55;114.60;;;54.28;;
25207;SDS011;13153;52.316;21.166;2023-02-17T02:48:21;105.50;;;51.47;;
25207;SDS011;13153;52.316;21.166;2023-02-17T02:53:43;108.10;;;52.30;;
25207;SDS011;13153;52.316;21.166;2023-02-17T02:57:25;112.13;;;52.05;;
25207;SDS011;13153;52.316;21.166;2023-02-17T03:03:28;110.13;;;50.92;;
25207;SDS011;13153;52.316;21.166;2023-02-17T03:06:08;104.75;;;52.10;;
25207;SDS011;13153;52.316;21.166;2023-02-17T03:09:08;104.93;;;50.42;;
25207;SDS011;13153;52.316;21.166;2023-02-17T03:11:48;105.50;;;51.15;;
25207;SDS011;13153;52.316;21.166;2023-02-17T03:14:16;108.80;;;52.28;;
25207;SDS011;13153;52.316;21.166;2023-02-17T03:16:45;102.47;;;51.53;;
25207;SDS011;13153;52.316;21.166;2023-02-17T03:19:12;112.28;;;52.60;;
25207;SDS011;13153;52.316;21.166;2023-02-17T03:21:43;103.53;;;51.45;;
25207;SDS011;13153;52.316;21.166;2023-02-17T03:24:15;108.13;;;52.42;;
25207;SDS011;13153;52.316;21.166;2023-02-17T03:26:42;106.55;;;51.53;;
25207;SDS011;13153;52.316;21.166;2023-02-17T03:29:08;102.65;;;51.15;;
25207;SDS011;13153;52.316;21.166;2023-02-17T03:31:34;111.35;;;51.67;;
25207;SDS011;13153;52.316;21.166;2023-02-17T03:34:00;109.25;;;51.78;;
25207;SDS011;13153;52.316;21.166;2023-02-17T03:36:26;109.28;;;52.70;;
25207;SDS011;13153;52.316;21.166;2023-02-17T03:38:54;106.97;;;51.38;;
25207;SDS011;13153;52.316;21.166;2023-02-17T03:41:20;109.53;;;53.55;;
25207;SDS011;13153;52.316;21.166;2023-02-17T03:43:47;109.13;;;52.72;;
25207;SDS011;13153;52.316;21.166;2023-02-17T03:46:14;106.82;;;52.20;;
25207;SDS011;13153;52.316;21.166;2023-02-17T03:48:41;104.43;;;51.08;;
25207;SDS011;13153;52.316;21.166;2023-02-17T03:51:18;107.97;;;52.80;;
25207;SDS011;13153;52.316;21.166;2023-02-17T03:53:46;110.13;;;52.50;;
25207;SDS011;13153;52.316;21.166;2023-02-17T03:56:14;104.03;;;51.33;;
25207;SDS011;13153;52.316;21.166;2023-02-17T03:58:40;107.97;;;54.10;;
25207;SDS011;13153;52.316;21.166;2023-02-17T04:01:06;110.63;;;52.65;;
25207;SDS011;13153;52.316;21.166;2023-02-17T04:03:34;108.95;;;51.38;;
25207;SDS011;13153;52.316;21.166;2023-02-17T04:06:01;110.10;;;52.42;;
25207;SDS011;13153;52.316;21.166;2023-02-17T04:08:28;103.78;;;50.03;;
25207;SDS011;13153;52.316;21.166;2023-02-17T04:10:59;110.22;;;51.83;;
25207;SDS011;13153;52.316;21.166;2023-02-17T04:13:27;107.57;;;50.97;;
25207;SDS011;13153;52.316;21.166;2023-02-17T04:15:53;107.07;;;52.20;;
25207;SDS011;13153;52.316;21.166;2023-02-17T04:18:20;107.40;;;51.08;;
25207;SDS011;13153;52.316;21.166;2023-02-17T04:20:47;104.75;;;51.40;;
25207;SDS011;13153;52.316;21.166;2023-02-17T04:23:15;106.85;;;50.38;;
25207;SDS011;13153;52.316;21.166;2023-02-17T04:25:42;105.40;;;51.00;;
25207;SDS011;13153;52.316;21.166;2023-02-17T04:28:09;107.22;;;51.00;;
25207;SDS011;13153;52.316;21.166;2023-02-17T04:30:35;102.18;;;49.08;;
25207;SDS011;13153;52.316;21.166;2023-02-17T04:33:01;107.40;;;49.40;;
25207;SDS011;13153;52.316;21.166;2023-02-17T04:35:27;106.65;;;51.80;;
25207;SDS011;13153;52.316;21.166;2023-02-17T04:37:53;104.55;;;49.38;;
25207;SDS011;13153;52.316;21.166;2023-02-17T04:40:19;104.20;;;50.85;;
25207;SDS011;13153;52.316;21.166;2023-02-17T04:42:45;108.97;;;51.60;;
25207;SDS011;13153;52.316;21.166;2023-02-17T04:45:11;98.75;;;49.47;;
25207;SDS011;13153;52.316;21.166;2023-02-17T04:47:37;103.13;;;49.55;;
25207;SDS011;13153;52.316;21.166;2023-02-17T04:50:04;107.82;;;51.63;;
25207;SDS011;13153;52.316;21.166;2023-02-17T04:52:32;103.82;;;51.08;;
25207;SDS011;13153;52.316;21.166;2023-02-17T04:54:58;108.55;;;51.15;;
25207;SDS011;13153;52.316;21.166;2023-02-17T04:57:24;105.97;;;50.35;;
25207;SDS011;13153;52.316;21.166;2023-02-17T04:59:51;100.05;;;49.50;;
25207;SDS011;13153;52.316;21.166;2023-02-17T05:02:17;110.78;;;50.10;;
25207;SDS011;13153;52.316;21.166;2023-02-17T05:04:42;105.82;;;49.97;;
25207;SDS011;13153;52.316;21.166;2023-02-17T05:07:08;108.13;;;50.30;;
25207;SDS011;13153;52.316;21.166;2023-02-17T05:09:34;107.55;;;50.85;;
25207;SDS011;13153;52.316;21.166;2023-02-17T05:12:00;104.22;;;50.13;;
25207;SDS011;13153;52.316;21.166;2023-02-17T05:14:27;105.68;;;49.13;;
25207;SDS011;13153;52.316;21.166;2023-02-17T05:16:53;102.50;;;51.22;;
25207;SDS011;13153;52.316;21.166;2023-02-17T05:19:19;112.30;;;52.72;;
25207;SDS011;13153;52.316;21.166;2023-02-17T05:21:45;102.43;;;50.35;;
25207;SDS011;13153;52.316;21.166;2023-02-17T05:24:10;111.25;;;53.00;;
25207;SDS011;13153;52.316;21.166;2023-02-17T05:26:36;114.07;;;53.35;;
25207;SDS011;13153;52.316;21.166;2023-02-17T05:29:02;123.35;;;55.22;;
25207;SDS011;13153;52.316;21.166;2023-02-17T05:31:28;112.70;;;53.30;;
25207;SDS011;13153;52.316;21.166;2023-02-17T05:33:54;108.22;;;52.10;;
25207;SDS011;13153;52.316;21.166;2023-02-17T05:36:20;108.80;;;51.90;;
25207;SDS011;13153;52.316;21.166;2023-02-17T05:38:46;98.43;;;49.42;;
25207;SDS011;13153;52.316;21.166;2023-02-17T05:41:17;108.00;;;49.95;;
25207;SDS011;13153;52.316;21.166;2023-02-17T05:43:44;105.78;;;49.95;;
25207;SDS011;13153;52.316;21.166;2023-02-17T05:46:11;103.18;;;49.17;;
25207;SDS011;13153;52.316;21.166;2023-02-17T05:48:37;104.15;;;51.58;;
25207;SDS011;13153;52.316;21.166;2023-02-17T05:51:22;107.90;;;51.42;;
25207;SDS011;13153;52.316;21.166;2023-02-17T05:53:47;107.03;;;50.78;;
25207;SDS011;13153;52.316;21.166;2023-02-17T05:56:13;99.15;;;50.22;;
25207;SDS011;13153;52.316;21.166;2023-02-17T05:58:39;104.15;;;49.53;;
25207;SDS011;13153;52.316;21.166;2023-02-17T06:01:08;104.07;;;50.15;;
25207;SDS011;13153;52.316;21.166;2023-02-17T06:03:36;100.60;;;49.58;;
25207;SDS011;13153;52.316;21.166;2023-02-17T06:06:02;101.78;;;49.13;;
25207;SDS011;13153;52.316;21.166;2023-02-17T06:08:29;103.82;;;50.08;;
25207;SDS011;13153;52.316;21.166;2023-02-17T06:10:55;105.13;;;50.40;;
25207;SDS011;13153;52.316;21.166;2023-02-17T06:13:21;101.07;;;51.08;;
25207;SDS011;13153;52.316;21.166;2023-02-17T06:15:47;105.18;;;50.65;;
25207;SDS011;13153;52.316;21.166;2023-02-17T06:18:12;101.82;;;50.08;;
25207;SDS011;13153;52.316;21.166;2023-02-17T06:20:38;106.60;;;50.75;;
25207;SDS011;13153;52.316;21.166;2023-02-17T06:23:04;107.50;;;50.20;;
25207;SDS011;13153;52.316;21.166;2023-02-17T06:25:30;99.75;;;50.00;;
25207;SDS011;13153;52.316;21.166;2023-02-17T06:27:56;108.55;;;51.90;;
25207;SDS011;13153;52.316;21.166;2023-02-17T06:30:22;96.35;;;48.55;;
25207;SDS011;13153;52.316;21.166;2023-02-17T06:32:48;92.55;;;48.20;;
25207;SDS011;13153;52.316;21.166;2023-02-17T06:35:14;99.65;;;49.75;;
25207;SDS011;13153;52.316;21.166;2023-02-17T06:37:41;102.57;;;48.30;;
25207;SDS011;13153;52.316;21.166;2023-02-17T06:40:07;100.07;;;49.45;;
25207;SDS011;13153;52.316;21.166;2023-02-17T06:42:34;99.10;;;47.83;;
25207;SDS011;13153;52.316;21.166;2023-02-17T06:45:00;97.22;;;47.53;;
25207;SDS011;13153;52.316;21.166;2023-02-17T06:47:29;104.78;;;50.92;;
25207;SDS011;13153;52.316;21.166;2023-02-17T06:49:57;103.53;;;50.67;;
25207;SDS011;13153;52.316;21.166;2023-02-17T06:52:23;100.07;;;49.08;;
25207;SDS011;13153;52.316;21.166;2023-02-17T06:54:48;104.88;;;50.40;;
25207;SDS011;13153;52.316;21.166;2023-02-17T06:57:14;101.97;;;49.03;;
25207;SDS011;13153;52.316;21.166;2023-02-17T06:59:41;105.15;;;51.08;;
25207;SDS011;13153;52.316;21.166;2023-02-17T07:02:09;106.78;;;52.05;;
25207;SDS011;13153;52.316;21.166;2023-02-17T07:04:36;105.18;;;51.70;;
25207;SDS011;13153;52.316;21.166;2023-02-17T07:07:03;106.78;;;51.90;;
25207;SDS011;13153;52.316;21.166;2023-02-17T07:09:29;106.15;;;51.83;;
25207;SDS011;13153;52.316;21.166;2023-02-17T07:11:55;99.13;;;49.38;;
25207;SDS011;13153;52.316;21.166;2023-02-17T07:14:24;105.88;;;49.78;;
25207;SDS011;13153;52.316;21.166;2023-02-17T07:16:51;97.65;;;48.53;;
25207;SDS011;13153;52.316;21.166;2023-02-17T07:19:17;96.28;;;48.03;;
25207;SDS011;13153;52.316;21.166;2023-02-17T07:21:43;103.32;;;48.78;;
25207;SDS011;13153;52.316;21.166;2023-02-17T07:24:10;100.95;;;46.92;;
25207;SDS011;13153;52.316;21.166;2023-02-17T07:26:36;99.68;;;48.03;;
25207;SDS011;13153;52.316;21.166;2023-02-17T07:29:05;99.13;;;49.08;;
25207;SDS011;13153;52.316;21.166;2023-02-17T07:31:31;96.30;;;47.58;;
25207;SDS011;13153;52.316;21.166;2023-02-17T07:33:59;94.55;;;48.50;;
25207;SDS011;13153;52.316;21.166;2023-02-17T07:36:26;99.88;;;49.60;;
25207;SDS011;13153;52.316;21.166;2023-02-17T07:38:52;92.03;;;47.72;;
25207;SDS011;13153;52.316;21.166;2023-02-17T07:41:19;93.60;;;46.70;;
25207;SDS011;13153;52.316;21.166;2023-02-17T07:43:51;90.00;;;45.10;;
25207;SDS011;13153;52.316;21.166;2023-02-17T07:46:19;90.75;;;45.30;;
25207;SDS011;13153;52.316;21.166;2023-02-17T07:48:45;95.50;;;47.90;;
25207;SDS011;13153;52.316;21.166;2023-02-17T07:51:13;90.05;;;44.35;;
25207;SDS011;13153;52.316;21.166;2023-02-17T07:53:46;87.45;;;44.63;;
25207;SDS011;13153;52.316;21.166;2023-02-17T07:56:15;81.20;;;42.78;;
25207;SDS011;13153;52.316;21.166;2023-02-17T07:58:45;82.22;;;42.45;;
25207;SDS011;13153;52.316;21.166;2023-02-17T08:01:20;89.50;;;43.33;;
25207;SDS011;13153;52.316;21.166;2023-02-17T08:03:48;87.10;;;42.95;;
25207;SDS011;13153;52.316;21.166;2023-02-17T08:06:17;86.43;;;43.72;;
25207;SDS011;13153;52.316;21.166;2023-02-17T08:08:47;88.68;;;43.97;;
25207;SDS011;13153;52.316;21.166;2023-02-17T08:11:33;85.65;;;42.67;;
25207;SDS011;13153;52.316;21.166;2023-02-17T08:14:22;87.25;;;42.65;;
25207;SDS011;13153;52.316;21.166;2023-02-17T08:16:51;86.90;;;43.70;;
25207;SDS011;13153;52.316;21.166;2023-02-17T08:19:17;87.18;;;43.05;;
25207;SDS011;13153;52.316;21.166;2023-02-17T08:21:43;84.55;;;42.97;;
25207;SDS011;13153;52.316;21.166;2023-02-17T08:24:09;84.60;;;42.78;;
25207;SDS011;13153;52.316;21.166;2023-02-17T08:26:36;84.57;;;43.33;;
25207;SDS011;13153;52.316;21.166;2023-02-17T08:29:03;87.40;;;42.03;;
25207;SDS011;13153;52.316;21.166;2023-02-17T08:31:30;84.13;;;42.58;;
25207;SDS011;13153;52.316;21.166;2023-02-17T08:34:01;83.90;;;41.92;;
25207;SDS011;13153;52.316;21.166;2023-02-17T08:36:30;78.97;;;41.05;;
25207;SDS011;13153;52.316;21.166;2023-02-17T08:38:57;84.47;;;41.75;;
25207;SDS011;13153;52.316;21.166;2023-02-17T08:41:24;80.38;;;39.75;;
25207;SDS011;13153;52.316;21.166;2023-02-17T08:43:57;81.63;;;41.20;;
25207;SDS011;13153;52.316;21.166;2023-02-17T08:46:25;80.00;;;41.13;;
25207;SDS011;13153;52.316;21.166;2023-02-17T08:48:52;76.40;;;39.63;;
25207;SDS011;13153;52.316;21.166;2023-02-17T08:51:19;77.28;;;40.30;;
25207;SDS011;13153;52.316;21.166;2023-02-17T08:53:50;79.82;;;39.63;;
25207;SDS011;13153;52.316;21.166;2023-02-17T08:56:19;79.53;;;40.30;;
25207;SDS011;13153;52.316;21.166;2023-02-17T08:58:47;76.90;;;38.22;;
25207;SDS011;13153;52.316;21.166;2023-02-17T09:01:13;74.20;;;39.75;;
25207;SDS011;13153;52.316;21.166;2023-02-17T09:03:39;74.60;;;39.60;;
25207;SDS011;13153;52.316;21.166;2023-02-17T09:06:06;77.07;;;39.78;;
25207;SDS011;13153;52.316;21.166;2023-02-17T09:08:33;78.55;;;38.88;;
25207;SDS011;13153;52.316;21.166;2023-02-17T09:10:59;75.05;;;39.30;;
25207;SDS011;13153;52.316;21.166;2023-02-17T09:13:25;75.90;;;39.22;;
25207;SDS011;13153;52.316;21.166;2023-02-17T09:15:51;79.88;;;40.35;;
25207;SDS011;13153;52.316;21.166;2023-02-17T09:18:18;74.78;;;37.85;;
25207;SDS011;13153;52.316;21.166;2023-02-17T09:20:47;79.78;;;40.35;;
25207;SDS011;13153;52.316;21.166;2023-02-17T09:23:13;71.70;;;37.33;;
25207;SDS011;13153;52.316;21.166;2023-02-17T09:25:40;73.93;;;37.75;;
25207;SDS011;13153;52.316;21.166;2023-02-17T09:28:06;77.05;;;40.00;;
25207;SDS011;13153;52.316;21.166;2023-02-17T09:30:32;71.07;;;37.50;;
25207;SDS011;13153;52.316;21.166;2023-02-17T09:32:58;71.60;;;37.70;;
25207;SDS011;13153;52.316;21.166;2023-02-17T09:35:24;74.15;;;37.80;;
25207;SDS011;13153;52.316;21.166;2023-02-17T09:37:50;72.80;;;38.90;;
25207;SDS011;13153;52.316;21.166;2023-02-17T09:40:21;73.97;;;39.00;;
25207;SDS011;13153;52.316;21.166;2023-02-17T09:43:05;72.93;;;37.78;;
25207;SDS011;13153;52.316;21.166;2023-02-17T09:48:09;68.47;;;36.03;;
25207;SDS011;13153;52.316;21.166;2023-02-17T09:50:44;74.73;;;39.73;;
25207;SDS011;13153;52.316;21.166;2023-02-17T09:56:32;72.45;;;38.90;;
25207;SDS011;13153;52.316;21.166;2023-02-17T09:59:05;70.55;;;37.47;;
25207;SDS011;13153;52.316;21.166;2023-02-17T10:01:51;76.35;;;40.05;;
25207;SDS011;13153;52.316;21.166;2023-02-17T10:04:23;73.60;;;38.38;;
25207;SDS011;13153;52.316;21.166;2023-02-17T10:06:59;74.75;;;38.70;;
25207;SDS011;13153;52.316;21.166;2023-02-17T10:09:41;76.07;;;40.13;;
25207;SDS011;13153;52.316;21.166;2023-02-17T10:12:24;74.88;;;39.72;;
25207;SDS011;13153;52.316;21.166;2023-02-17T10:15:08;81.97;;;39.80;;
25207;SDS011;13153;52.316;21.166;2023-02-17T10:17:53;79.80;;;39.75;;
25207;SDS011;13153;52.316;21.166;2023-02-17T10:20:39;83.97;;;40.22;;
25207;SDS011;13153;52.316;21.166;2023-02-17T10:23:46;83.72;;;40.40;;
25207;SDS011;13153;52.316;21.166;2023-02-17T10:29:13;79.68;;;40.55;;
25207;SDS011;13153;52.316;21.166;2023-02-17T10:32:14;81.63;;;41.80;;
25207;SDS011;13153;52.316;21.166;2023-02-17T10:42:53;83.45;;;41.72;;
25207;SDS011;13153;52.316;21.166;2023-02-17T10:50:42;78.93;;;41.90;;
25207;SDS011;13153;52.316;21.166;2023-02-17T10:53:12;85.07;;;42.42;;
25207;SDS011;13153;52.316;21.166;2023-02-17T11:00:51;83.13;;;42.10;;
25207;SDS011;13153;52.316;21.166;2023-02-17T11:03:27;78.15;;;41.00;;
25207;SDS011;13153;52.316;21.166;2023-02-17T11:05:55;75.63;;;39.65;;
25207;SDS011;13153;52.316;21.166;2023-02-17T11:08:33;74.97;;;41.73;;
25207;SDS011;13153;52.316;21.166;2023-02-17T11:13:43;76.20;;;40.23;;
25207;SDS011;13153;52.316;21.166;2023-02-17T11:16:44;75.78;;;40.88;;
25207;SDS011;13153;52.316;21.166;2023-02-17T11:19:26;75.13;;;40.75;;
25207;SDS011;13153;52.316;21.166;2023-02-17T11:21:58;79.90;;;41.50;;
25207;SDS011;13153;52.316;21.166;2023-02-17T11:24:30;82.97;;;41.95;;
25207;SDS011;13153;52.316;21.166;2023-02-17T11:29:33;78.30;;;41.55;;
25207;SDS011;13153;52.316;21.166;2023-02-17T11:32:07;81.03;;;42.90;;
25207;SDS011;13153;52.316;21.166;2023-02-17T11:34:40;77.95;;;40.10;;
25207;SDS011;13153;52.316;21.166;2023-02-17T11:39:40;77.45;;;41.53;;
25207;SDS011;13153;52.316;21.166;2023-02-17T11:42:23;76.97;;;41.10;;
25207;SDS011;13153;52.316;21.166;2023-02-17T11:44:53;79.55;;;41.88;;
25207;SDS011;13153;52.316;21.166;2023-02-17T11:50:59;78.13;;;41.40;;
25207;SDS011;13153;52.316;21.166;2023-02-17T11:54:25;81.53;;;44.35;;
25207;SDS011;13153;52.316;21.166;2023-02-17T11:56:58;81.80;;;42.60;;
25207;SDS011;13153;52.316;21.166;2023-02-17T12:00:13;82.32;;;43.97;;
25207;SDS011;13153;52.316;21.166;2023-02-17T12:19:30;77.57;;;41.85;;
25207;SDS011;13153;52.316;21.166;2023-02-17T12:22:45;81.35;;;43.17;;
25207;SDS011;13153;52.316;21.166;2023-02-17T12:37:18;75.97;;;41.20;;
25207;SDS011;13153;52.316;21.166;2023-02-17T12:39:54;77.97;;;42.42;;
25207;SDS011;13153;52.316;21.166;2023-02-17T12:42:59;69.95;;;39.40;;
25207;SDS011;13153;52.316;21.166;2023-02-17T12:45:39;82.22;;;42.35;;
25207;SDS011;13153;52.316;21.166;2023-02-17T12:48:20;76.75;;;39.45;;
25207;SDS011;13153;52.316;21.166;2023-02-17T12:53:45;73.55;;;39.78;;
25207;SDS011;13153;52.316;21.166;2023-02-17T12:59:32;74.47;;;38.33;;
25207;SDS011;13153;52.316;21.166;2023-02-17T13:04:42;78.53;;;40.33;;
25207;SDS011;13153;52.316;21.166;2023-02-17T13:10:44;75.80;;;38.35;;
25207;SDS011;13153;52.316;21.166;2023-02-17T13:15:59;73.05;;;37.63;;
25207;SDS011;13153;52.316;21.166;2023-02-17T13:18:46;68.45;;;36.55;;
25207;SDS011;13153;52.316;21.166;2023-02-17T13:31:57;66.70;;;35.22;;
25207;SDS011;13153;52.316;21.166;2023-02-17T13:34:31;68.22;;;36.03;;
25207;SDS011;13153;52.316;21.166;2023-02-17T13:39:56;64.10;;;35.28;;
25207;SDS011;13153;52.316;21.166;2023-02-17T13:44:59;67.57;;;36.15;;
25207;SDS011;13153;52.316;21.166;2023-02-17T13:47:35;70.88;;;36.50;;
25207;SDS011;13153;52.316;21.166;2023-02-17T13:50:04;68.82;;;36.45;;
25207;SDS011;13153;52.316;21.166;2023-02-17T13:52:31;61.83;;;33.67;;
25207;SDS011;13153;52.316;21.166;2023-02-17T13:54:58;60.83;;;33.88;;
25207;SDS011;13153;52.316;21.166;2023-02-17T13:57:28;59.15;;;32.45;;
25207;SDS011;13153;52.316;21.166;2023-02-17T14:02:46;56.35;;;31.85;;
25207;SDS011;13153;52.316;21.166;2023-02-17T14:05:34;55.55;;;31.05;;
25207;SDS011;13153;52.316;21.166;2023-02-17T14:08:18;55.88;;;31.95;;
25207;SDS011;13153;52.316;21.166;2023-02-17T14:11:09;54.70;;;30.75;;
25207;SDS011;13153;52.316;21.166;2023-02-17T14:13:49;53.58;;;29.52;;
25207;SDS011;13153;52.316;21.166;2023-02-17T14:19:17;49.47;;;30.42;;
25207;SDS011;13153;52.316;21.166;2023-02-17T14:21:45;57.67;;;32.65;;
25207;SDS011;13153;52.316;21.166;2023-02-17T14:24:35;51.73;;;29.00;;
25207;SDS011;13153;52.316;21.166;2023-02-17T14:27:03;50.58;;;28.38;;
25207;SDS011;13153;52.316;21.166;2023-02-17T14:29:42;44.50;;;27.65;;
25207;SDS011;13153;52.316;21.166;2023-02-17T14:32:26;50.08;;;27.38;;
25207;SDS011;13153;52.316;21.166;2023-02-17T14:35:09;46.67;;;27.10;;
25207;SDS011;13153;52.316;21.166;2023-02-17T14:37:47;50.10;;;27.15;;
25207;SDS011;13153;52.316;21.166;2023-02-17T14:40:19;51.40;;;28.40;;
25207;SDS011;13153;52.316;21.166;2023-02-17T14:42:48;53.97;;;28.63;;
25207;SDS011;13153;52.316;21.166;2023-02-17T14:45:15;54.13;;;29.23;;
25207;SDS011;13153;52.316;21.166;2023-02-17T14:47:43;52.10;;;29.85;;
25207;SDS011;13153;52.316;21.166;2023-02-17T14:50:10;53.55;;;28.55;;
25207;SDS011;13153;52.316;21.166;2023-02-17T14:52:39;59.42;;;31.52;;
25207;SDS011;13153;52.316;21.166;2023-02-17T14:57:59;58.55;;;29.92;;
25207;SDS011;13153;52.316;21.166;2023-02-17T15:00:25;50.70;;;28.23;;
25207;SDS011;13153;52.316;21.166;2023-02-17T15:02:51;61.40;;;30.42;;
25207;SDS011;13153;52.316;21.166;2023-02-17T15:05:17;47.38;;;27.67;;
25207;SDS011;13153;52.316;21.166;2023-02-17T15:07:43;49.72;;;27.73;;
25207;SDS011;13153;52.316;21.166;2023-02-17T15:10:28;49.72;;;27.52;;
25207;SDS011;13153;52.316;21.166;2023-02-17T15:12:54;51.15;;;28.95;;
25207;SDS011;13153;52.316;21.166;2023-02-17T15:15:43;50.88;;;28.77;;
25207;SDS011;13153;52.316;21.166;2023-02-17T15:18:12;56.97;;;29.80;;
25207;SDS011;13153;52.316;21.166;2023-02-17T15:20:41;51.67;;;28.08;;
25207;SDS011;13153;52.316;21.166;2023-02-17T15:23:11;51.75;;;28.40;;
25207;SDS011;13153;52.316;21.166;2023-02-17T15:25:41;51.47;;;28.35;;
25207;SDS011;13153;52.316;21.166;2023-02-17T15:28:12;55.40;;;28.70;;
25207;SDS011;13153;52.316;21.166;2023-02-17T15:30:41;56.35;;;31.27;;
25207;SDS011;13153;52.316;21.166;2023-02-17T15:33:15;51.22;;;28.70;;
25207;SDS011;13153;52.316;21.166;2023-02-17T15:35:41;58.20;;;31.60;;
25207;SDS011;13153;52.316;21.166;2023-02-17T15:38:13;55.22;;;29.58;;
25207;SDS011;13153;52.316;21.166;2023-02-17T15:40:39;52.00;;;28.02;;
25207;SDS011;13153;52.316;21.166;2023-02-17T15:43:08;56.20;;;31.67;;
25207;SDS011;13153;52.316;21.166;2023-02-17T15:45:41;53.55;;;28.63;;
25207;SDS011;13153;52.316;21.166;2023-02-17T15:48:10;49.45;;;29.60;;
25207;SDS011;13153;52.316;21.166;2023-02-17T15:50:51;48.47;;;26.80;;
25207;SDS011;13153;52.316;21.166;2023-02-17T15:53:18;49.75;;;28.70;;
25207;SDS011;13153;52.316;21.166;2023-02-17T15:55:43;49.85;;;27.50;;
25207;SDS011;13153;52.316;21.166;2023-02-17T15:58:12;52.72;;;30.13;;
25207;SDS011;13153;52.316;21.166;2023-02-17T16:00:41;51.53;;;29.70;;
25207;SDS011;13153;52.316;21.166;2023-02-17T16:03:13;56.97;;;31.65;;
25207;SDS011;13153;52.316;21.166;2023-02-17T16:05:40;57.90;;;30.92;;
25207;SDS011;13153;52.316;21.166;2023-02-17T16:08:06;56.00;;;32.20;;
25207;SDS011;13153;52.316;21.166;2023-02-17T16:10:33;53.90;;;31.48;;
25207;SDS011;13153;52.316;21.166;2023-02-17T16:13:00;54.08;;;29.40;;
25207;SDS011;13153;52.316;21.166;2023-02-17T16:15:29;52.85;;;30.38;;
25207;SDS011;13153;52.316;21.166;2023-02-17T16:17:57;50.45;;;30.73;;
25207;SDS011;13153;52.316;21.166;2023-02-17T16:20:41;49.28;;;29.10;;
25207;SDS011;13153;52.316;21.166;2023-02-17T16:23:06;51.60;;;29.95;;
25207;SDS011;13153;52.316;21.166;2023-02-17T16:25:32;47.10;;;29.17;;
25207;SDS011;13153;52.316;21.166;2023-02-17T16:28:00;43.20;;;26.55;;
25207;SDS011;13153;52.316;21.166;2023-02-17T16:32:56;44.22;;;27.80;;
25207;SDS011;13153;52.316;21.166;2023-02-17T16:35:24;52.60;;;30.05;;